Cave Rock, Nevada
Current Conditions -  °F | °C
As of 9:53 AM on Friday 24 Oct 2014 (Local Time) from KTVL Reporting Station
Clear Clear  
Wind Chill: 64°   Ceiling: Unl
Heat Index: 64°   Visibility: 10mi
Dew Point: 22°   Wind: 22mph
Humidity: 20%   Direction: 190°S
Pressure: 30.15"   Gusts: 29mph
Location:  39.0164°N, 119.925°W
Report Text: KTVL 241653Z AUTO 19019G25KT 10SM CLR 18/M06 A3015 RMK AO2 SLP168 T01781056
Loading
Personal Weather Stations






























Interactive Weather Map
Tropical Storm Tracking
New forecast layout! Learn more

10-Day Weather Forecast

Advertisements
Track Severe Weather on mobile